Time;durP1;ratioP1;P1;durP2;ratioP2;P2;SDS_P1;SDS_P2;PMS_P1;PMS_P2;Temp;Humidity;BMP_temperature;BMP_pressure;BME280_temperature;BME280_humidity;BME280_pressure;Samples;Min_cycle;Max_cycle;Signal;HPM_P1;HPM_P2
2021/11/07 00:00:09;;;;;;;21.67;11.05;;;7.60;99.90;;;;;;5116565;28;20027;-79
2021/11/07 00:02:38;;;;;;;18.35;9.10;;;7.60;99.90;;;;;;5114227;28;20652;-78
2021/11/07 00:05:06;;;;;;;24.73;11.95;;;7.60;99.90;;;;;;5114226;28;20476;-78
2021/11/07 00:08:20;;;;;;;21.35;9.88;;;7.50;99.90;;;;;;5117109;28;20391;-77
2021/11/07 00:13:12;;;;;;;20.80;8.60;;;7.60;99.90;;;;;;5117569;27;20066;-78
2021/11/07 00:15:38;;;;;;;19.63;9.10;;;7.60;99.90;;;;;;5114765;28;20061;-78
2021/11/07 00:18:10;;;;;;;22.60;10.23;;;7.60;99.90;;;;;;5116870;28;20449;-77
2021/11/07 00:20:41;;;;;;;40.55;17.33;;;7.60;99.90;;;;;;5114698;28;20290;-77
2021/11/07 00:23:19;;;;;;;43.33;21.33;;;7.60;99.90;;;;;;5114339;28;20068;-77
2021/11/07 00:25:50;;;;;;;39.35;18.27;;;7.60;99.90;;;;;;5114864;28;20016;-78
2021/11/07 00:28:35;;;;;;;34.22;15.25;;;7.70;99.90;;;;;;5117189;28;20035;-77
2021/11/07 00:38:44;;;;;;;;;;;7.70;99.90;;;;;;5112270;28;20024;-76
2021/11/07 00:44:00;;;;;;;14.57;5.05;;;7.80;99.90;;;;;;5110862;28;20034;-77
2021/11/07 00:46:31;;;;;;;8.73;3.97;;;7.90;99.90;;;;;;5110415;28;20026;-77
2021/11/07 00:49:18;;;;;;;7.22;3.90;;;7.90;99.90;;;;;;5109515;28;20035;-77
2021/11/07 00:54:21;;;;;;;5.72;3.17;;;8.00;99.90;;;;;;5110281;28;20116;-77
2021/11/07 00:56:53;;;;;;;6.95;4.13;;;8.00;99.90;;;;;;5110430;28;20035;-76
2021/11/07 00:59:47;;;;;;;6.78;3.78;;;8.10;99.90;;;;;;5110594;28;20047;-76
2021/11/07 01:02:28;;;;;;;8.55;4.75;;;8.10;99.90;;;;;;5110355;28;20032;-77
2021/11/07 01:04:54;;;;;;;6.25;4.18;;;8.00;99.90;;;;;;5108735;28;20031;-77
2021/11/07 01:07:23;;;;;;;;;;;8.00;99.90;;;;;;5111195;28;20061;-77
2021/11/07 01:09:50;;;;;;;6.75;4.30;;;8.00;99.90;;;;;;5108586;28;19978;-77
2021/11/07 01:12:17;;;;;;;9.15;5.25;;;7.90;99.90;;;;;;5110278;27;20079;-77
2021/11/07 01:14:43;;;;;;;9.90;5.88;;;8.00;99.90;;;;;;5110113;28;20460;-77
2021/11/07 01:17:08;;;;;;;;;;;8.00;99.90;;;;;;5108632;28;20118;-78
2021/11/07 01:19:36;;;;;;;14.35;7.43;;;7.90;99.90;;;;;;5109096;28;19903;-76
2021/11/07 01:22:04;;;;;;;14.13;7.47;;;7.90;99.90;;;;;;5107931;28;20305;-76
2021/11/07 01:24:36;;;;;;;12.60;6.15;;;7.90;99.90;;;;;;5107506;28;20038;-77
2021/11/07 01:27:21;;;;;;;11.85;6.07;;;7.80;99.90;;;;;;5109150;28;20050;-76
2021/11/07 01:29:51;;;;;;;12.75;6.70;;;7.90;99.90;;;;;;5108236;28;20055;-77
2021/11/07 01:32:20;;;;;;;13.02;6.35;;;8.00;99.90;;;;;;5108888;28;20503;-77
2021/11/07 01:37:24;;;;;;;9.50;5.30;;;7.80;99.90;;;;;;5109621;28;20625;-77
2021/11/07 01:42:28;;;;;;;;;;;7.80;99.90;;;;;;5110540;28;20611;-77
2021/11/07 01:45:06;;;;;;;9.40;5.38;;;7.90;99.90;;;;;;5109663;28;19918;-77
2021/11/07 01:47:38;;;;;;;7.75;5.05;;;7.80;99.90;;;;;;5108939;28;20394;-77
2021/11/07 01:50:05;;;;;;;9.45;4.95;;;7.80;99.90;;;;;;5109926;28;20106;-77
2021/11/07 01:52:37;;;;;;;9.60;5.03;;;7.80;99.90;;;;;;5109465;28;20068;-77
2021/11/07 01:55:05;;;;;;;8.88;4.82;;;7.70;99.90;;;;;;5108684;28;20047;-76
2021/11/07 01:57:32;;;;;;;7.28;4.65;;;7.70;99.90;;;;;;5109578;28;20110;-77
2021/11/07 02:00:03;;;;;;;15.45;4.65;;;7.70;99.90;;;;;;5111139;28;20032;-76
2021/11/07 02:02:36;;;;;;;8.30;3.97;;;7.70;99.90;;;;;;5113262;28;20083;-77
2021/11/07 02:05:04;;;;;;;14.90;6.88;;;7.70;99.90;;;;;;5107067;28;20321;-77
2021/11/07 02:07:30;;;;;;;9.30;5.75;;;7.70;99.90;;;;;;5108237;28;20028;-76
2021/11/07 02:09:55;;;;;;;;;;;7.70;99.90;;;;;;5110304;28;20023;-78
2021/11/07 02:12:21;;;;;;;9.55;5.68;;;7.70;99.90;;;;;;5112421;28;19914;-77
2021/11/07 02:14:47;;;;;;;12.98;5.75;;;7.70;99.90;;;;;;5111292;28;20035;-78
2021/11/07 02:17:13;;;;;;;;;;;7.70;99.90;;;;;;5108232;28;20040;-76
2021/11/07 02:19:44;;;;;;;11.95;6.10;;;7.70;99.90;;;;;;5108914;28;19907;-76
2021/11/07 02:22:09;;;;;;;10.82;5.63;;;7.70;99.90;;;;;;5109309;28;20028;-77
2021/11/07 02:24:36;;;;;;;;;;;7.70;99.90;;;;;;5108795;28;20028;-76
2021/11/07 02:27:04;;;;;;;13.30;6.68;;;7.70;99.90;;;;;;5108529;28;19911;-77
2021/11/07 02:29:31;;;;;;;12.23;5.63;;;7.60;99.90;;;;;;5109744;28;20055;-76
2021/11/07 02:31:57;;;;;;;11.35;6.05;;;7.70;99.90;;;;;;5110215;28;20032;-77
2021/11/07 02:34:26;;;;;;;;;;;7.70;99.90;;;;;;5111252;28;20035;-77
2021/11/07 02:36:52;;;;;;;9.70;4.03;;;7.70;99.90;;;;;;5111050;28;19917;-77
2021/11/07 02:39:18;;;;;;;;;;;7.60;99.90;;;;;;5111349;28;20110;-78
2021/11/07 02:41:45;;;;;;;10.85;4.10;;;7.60;99.90;;;;;;5109602;28;20023;-78
2021/11/07 02:44:24;;;;;;;6.47;3.38;;;7.60;99.90;;;;;;5111264;28;20077;-78
2021/11/07 02:46:50;;;;;;;8.65;4.88;;;7.60;99.90;;;;;;5110502;28;20085;-79
2021/11/07 02:49:16;;;;;;;;;;;7.60;99.90;;;;;;5113189;28;20020;-78
2021/11/07 02:51:42;;;;;;;9.98;6.40;;;7.60;99.90;;;;;;5113146;28;19904;-77
2021/11/07 02:54:08;;;;;;;;;;;7.50;99.90;;;;;;5114792;28;20043;-78
2021/11/07 02:56:35;;;;;;;13.18;8.50;;;7.50;99.90;;;;;;5115355;28;19960;-77
2021/11/07 02:59:01;;;;;;;15.05;9.60;;;7.50;99.90;;;;;;5115692;28;20048;-78
2021/11/07 03:01:28;;;;;;;13.52;8.88;;;7.50;99.90;;;;;;5112931;28;20083;-77
2021/11/07 03:04:06;;;;;;;12.93;8.25;;;7.40;99.90;;;;;;5113866;28;20036;-78
2021/11/07 03:06:33;;;;;;;18.35;9.82;;;7.50;99.90;;;;;;5117592;28;20027;-77
2021/11/07 03:09:00;;;;;;;14.38;9.13;;;7.40;99.90;;;;;;5108079;28;20062;-79
2021/11/07 03:11:25;;;;;;;12.43;8.52;;;7.30;99.90;;;;;;5111326;28;20019;-78
2021/11/07 03:13:51;;;;;;;;;;;7.40;99.90;;;;;;5107496;28;20104;-78
2021/11/07 03:16:17;;;;;;;20.92;11.05;;;7.40;99.90;;;;;;5110187;28;19916;-78
2021/11/07 03:18:43;;;;;;;;;;;7.40;99.90;;;;;;5108561;28;20061;-77
2021/11/07 03:21:11;;;;;;;16.45;9.95;;;7.40;99.90;;;;;;5107367;28;19939;-78
2021/11/07 03:23:39;;;;;;;15.93;9.70;;;7.40;99.90;;;;;;5106343;28;20035;-77
2021/11/07 03:26:11;;;;;;;15.80;10.30;;;7.40;99.90;;;;;;5107041;28;20023;-77
2021/11/07 03:28:39;;;;;;;14.82;10.07;;;7.40;99.90;;;;;;5111241;28;20655;-77
2021/11/07 03:33:41;;;;;;;18.40;9.57;;;7.40;99.90;;;;;;5112414;28;20114;-78
2021/11/07 03:36:08;;;;;;;12.88;8.98;;;7.40;99.90;;;;;;5112118;28;20019;-78
2021/11/07 03:38:35;;;;;;;13.60;8.55;;;7.40;99.90;;;;;;5110777;28;20035;-76
2021/11/07 03:41:05;;;;;;;15.60;9.13;;;7.40;99.90;;;;;;5112394;28;20596;-77
2021/11/07 03:43:31;;;;;;;16.25;9.23;;;7.40;99.90;;;;;;5110410;28;20024;-77
2021/11/07 03:45:57;;;;;;;;;;;7.40;99.90;;;;;;5111569;28;20026;-77
2021/11/07 03:48:23;;;;;;;14.18;8.82;;;7.40;99.90;;;;;;5111423;28;19958;-78
2021/11/07 03:50:49;;;;;;;13.40;8.07;;;7.40;99.90;;;;;;5112809;28;20070;-78
2021/11/07 03:53:15;;;;;;;;;;;7.50;99.90;;;;;;5113932;27;20044;-77
2021/11/07 03:55:41;;;;;;;8.25;5.47;;;7.50;99.90;;;;;;5112678;28;19915;-78
2021/11/07 03:58:07;;;;;;;9.18;6.35;;;7.50;99.90;;;;;;5113372;28;20081;-78
2021/11/07 04:00:34;;;;;;;9.07;5.10;;;7.70;99.90;;;;;;5113797;28;20043;-77
2021/11/07 04:03:00;;;;;;;6.80;4.68;;;7.60;99.90;;;;;;5113264;28;20031;-79
2021/11/07 04:05:25;;;;;;;;;;;7.60;99.90;;;;;;5113173;28;20028;-79
2021/11/07 04:07:53;;;;;;;12.30;5.78;;;7.60;99.90;;;;;;5112330;28;19999;-78
2021/11/07 04:10:19;;;;;;;10.50;5.78;;;7.60;99.90;;;;;;5113297;28;20031;-77
2021/11/07 04:12:46;;;;;;;;;;;7.60;99.90;;;;;;5114039;28;20055;-78
2021/11/07 04:15:12;;;;;;;10.00;6.43;;;7.60;99.90;;;;;;5112671;28;19916;-78
2021/11/07 04:17:38;;;;;;;;;;;7.60;99.90;;;;;;5113962;28;20032;-78
2021/11/07 04:20:06;;;;;;;14.13;8.00;;;7.60;99.90;;;;;;5113802;28;19912;-80
2021/11/07 04:22:32;;;;;;;29.85;12.82;;;7.60;99.90;;;;;;5113185;27;20039;-78
2021/11/07 04:24:58;;;;;;;30.73;15.93;;;7.70;99.90;;;;;;5112877;28;20028;-78
2021/11/07 04:27:23;;;;;;;;;;;7.70;99.90;;;;;;5112055;28;20031;-77
2021/11/07 04:29:50;;;;;;;23.52;11.50;;;7.70;99.90;;;;;;5111585;28;20389;-77
2021/11/07 04:32:16;;;;;;;22.05;11.10;;;7.70;99.90;;;;;;5110791;28;20554;-78
2021/11/07 04:34:42;;;;;;;;;;;7.70;99.90;;;;;;5112053;28;20122;-78
2021/11/07 04:37:08;;;;;;;18.73;8.98;;;7.70;99.90;;;;;;5111894;28;20360;-78
2021/11/07 04:39:35;;;;;;;16.98;8.75;;;7.70;99.90;;;;;;5110816;28;20024;-77
2021/11/07 04:42:01;;;;;;;18.45;9.63;;;7.70;99.90;;;;;;5109388;28;20038;-77
2021/11/07 04:44:27;;;;;;;;;;;7.70;99.90;;;;;;5109908;28;20031;-77
2021/11/07 04:46:54;;;;;;;16.13;8.10;;;7.80;99.90;;;;;;5111745;28;19914;-78
2021/11/07 04:49:20;;;;;;;13.95;8.13;;;7.70;99.90;;;;;;5111504;28;20077;-77
2021/11/07 04:51:46;;;;;;;;;;;7.70;99.90;;;;;;5111976;28;20111;-77
2021/11/07 04:54:12;;;;;;;12.43;7.32;;;7.70;99.90;;;;;;5110167;28;19920;-78
2021/11/07 04:56:38;;;;;;;14.98;8.05;;;7.70;99.90;;;;;;5113386;28;20023;-78
2021/11/07 04:59:04;;;;;;;;;;;7.80;99.90;;;;;;5111538;28;20080;-78
2021/11/07 05:01:29;;;;;;;13.95;7.20;;;7.70;99.90;;;;;;5112780;28;20251;-77
2021/11/07 05:03:58;;;;;;;;;;;7.90;99.90;;;;;;5108765;28;20028;-77
2021/11/07 05:06:25;;;;;;;12.55;7.03;;;7.70;99.90;;;;;;5109775;28;19908;-78
2021/11/07 05:08:50;;;;;;;11.18;6.55;;;7.70;99.90;;;;;;5111437;28;20096;-78
2021/11/07 05:11:16;;;;;;;;;;;7.70;99.90;;;;;;5109766;28;20483;-77
2021/11/07 05:13:42;;;;;;;14.80;7.13;;;7.70;99.90;;;;;;5110102;28;19916;-77
2021/11/07 05:16:08;;;;;;;12.27;7.35;;;7.80;99.90;;;;;;5109983;28;20054;-77
2021/11/07 05:18:33;;;;;;;;;;;7.60;99.90;;;;;;5110662;28;20491;-77
2021/11/07 05:20:59;;;;;;;14.82;8.52;;;7.80;99.90;;;;;;5111481;28;19910;-78
2021/11/07 05:23:25;;;;;;;;;;;7.70;99.90;;;;;;5112956;28;20503;-78
2021/11/07 05:25:51;;;;;;;12.30;8.05;;;7.70;99.90;;;;;;5111810;28;19904;-79
2021/11/07 05:28:17;;;;;;;14.98;10.80;;;7.60;99.90;;;;;;5110942;28;20023;-78
2021/11/07 05:30:44;;;;;;;;;;;7.60;99.90;;;;;;5114526;28;20073;-78
2021/11/07 05:33:10;;;;;;;18.17;11.02;;;7.60;99.90;;;;;;5112771;28;19907;-79
2021/11/07 05:35:36;;;;;;;;;;;7.60;99.90;;;;;;5114723;28;20084;-77
2021/11/07 05:38:01;;;;;;;17.27;9.98;;;7.60;99.90;;;;;;5115999;28;19908;-79
2021/11/07 05:40:27;;;;;;;;;;;7.60;99.90;;;;;;5121234;28;20032;-79
2021/11/07 05:42:53;;;;;;;14.13;9.77;;;7.60;99.90;;;;;;5117768;28;20041;-79
2021/11/07 05:45:19;;;;;;;;;;;7.50;99.90;;;;;;5112167;28;20423;-78
2021/11/07 05:47:48;;;;;;;15.30;9.80;;;7.50;99.90;;;;;;5111239;28;19904;-79
2021/11/07 05:50:15;;;;;;;17.27;10.90;;;7.50;99.90;;;;;;5113447;28;20049;-79
2021/11/07 05:52:42;;;;;;;21.00;14.02;;;7.50;99.90;;;;;;5112838;28;20400;-79
2021/11/07 05:55:08;;;;;;;25.45;16.05;;;7.50;99.90;;;;;;5114343;28;20039;-78
2021/11/07 05:57:34;;;;;;;;;;;7.50;99.90;;;;;;5115899;28;20164;-79
2021/11/07 06:00:00;;;;;;;23.88;15.45;;;7.40;99.90;;;;;;5126490;27;19911;-78
2021/11/07 06:02:25;;;;;;;;;;;7.40;99.90;;;;;;5131696;27;20049;-78
2021/11/07 06:04:53;;;;;;;20.40;12.77;;;7.40;99.90;;;;;;5129091;27;19907;-78
2021/11/07 06:07:19;;;;;;;20.65;12.68;;;7.40;99.90;;;;;;5128584;27;20027;-78
2021/11/07 06:09:46;;;;;;;19.80;12.27;;;7.40;99.90;;;;;;5117227;27;20115;-78
2021/11/07 06:12:12;;;;;;;18.85;12.60;;;7.40;99.90;;;;;;5108915;28;20047;-78
2021/11/07 06:14:37;;;;;;;;;;;7.40;99.90;;;;;;5110568;28;20059;-78
2021/11/07 06:17:05;;;;;;;17.92;12.23;;;7.50;99.90;;;;;;5108466;28;19911;-78
2021/11/07 06:19:31;;;;;;;21.00;12.73;;;7.40;99.90;;;;;;5090911;28;20062;-78
2021/11/07 06:21:57;;;;;;;;;;;7.40;99.90;;;;;;5109746;28;20468;-77
2021/11/07 06:24:27;;;;;;;25.42;13.50;;;7.40;99.90;;;;;;5107686;28;19914;-76
2021/11/07 06:26:55;;;;;;;22.40;12.77;;;7.40;99.90;;;;;;5107815;28;20115;-75
2021/11/07 06:29:21;;;;;;;20.00;11.68;;;7.50;99.90;;;;;;5109617;28;20027;-77
2021/11/07 06:31:46;;;;;;;;;;;7.50;99.90;;;;;;5108774;28;20072;-78
2021/11/07 06:34:12;;;;;;;21.20;11.93;;;7.50;99.90;;;;;;5142652;27;19915;-78
2021/11/07 06:36:38;;;;;;;;;;;7.50;99.90;;;;;;5108719;28;20526;-78
2021/11/07 06:39:04;;;;;;;22.52;13.63;;;7.50;99.90;;;;;;5109392;28;20375;-78
2021/11/07 06:41:30;;;;;;;24.85;12.57;;;7.50;99.90;;;;;;5107424;28;20118;-78
2021/11/07 06:43:56;;;;;;;;;;;7.60;99.90;;;;;;5110484;28;20126;-77
2021/11/07 06:46:25;;;;;;;16.00;9.85;;;7.60;99.90;;;;;;5108210;28;19931;-77
2021/11/07 06:48:51;;;;;;;17.25;10.10;;;7.50;99.90;;;;;;5108752;28;20031;-78
2021/11/07 06:51:17;;;;;;;;;;;7.60;99.90;;;;;;5107605;28;20076;-77
2021/11/07 06:53:43;;;;;;;15.32;10.60;;;7.50;99.90;;;;;;5107996;28;19915;-77
2021/11/07 06:56:08;;;;;;;;;;;7.50;99.90;;;;;;5108750;28;20597;-78
2021/11/07 06:58:35;;;;;;;21.00;14.43;;;7.60;99.90;;;;;;5122508;27;20009;-76
2021/11/07 07:01:01;;;;;;;16.60;11.50;;;7.50;99.90;;;;;;5152378;27;20054;-77
2021/11/07 07:03:27;;;;;;;;;;;7.60;99.90;;;;;;5133204;27;20514;-77
2021/11/07 07:05:53;;;;;;;36.55;24.65;;;7.60;99.90;;;;;;5135491;27;19923;-77
2021/11/07 07:08:23;;;;;;;21.08;14.88;;;7.60;99.90;;;;;;5133559;27;20236;-77
2021/11/07 07:10:54;;;;;;;18.13;10.57;;;7.70;99.90;;;;;;5136818;27;20117;-76
2021/11/07 07:13:26;;;;;;;15.82;10.40;;;7.70;99.90;;;;;;5160873;27;20038;-77
2021/11/07 07:16:05;;;;;;;20.73;13.27;;;7.60;99.90;;;;;;5131085;27;20042;-77
2021/11/07 07:21:34;;;;;;;36.00;20.83;;;7.70;99.90;;;;;;5156437;27;20118;-77
2021/11/07 07:34:10;;;;;;;15.30;11.10;;;8.00;99.90;;;;;;5154902;27;20051;-75
2021/11/07 07:36:38;;;;;;;35.47;18.08;;;8.00;99.90;;;;;;5154393;27;20111;-78
2021/11/07 07:39:08;;;;;;;29.58;17.13;;;8.00;99.90;;;;;;5134602;27;20030;-76
2021/11/07 07:41:34;;;;;;;30.42;17.67;;;8.10;99.90;;;;;;5153697;27;20026;-76
2021/11/07 07:44:06;;;;;;;;;;;8.10;99.90;;;;;;5154150;27;20019;-76
2021/11/07 07:46:32;;;;;;;31.42;17.65;;;8.20;99.90;;;;;;5134450;27;20426;-78
2021/11/07 07:48:58;;;;;;;;;;;8.20;99.90;;;;;;5135422;27;20117;-80
2021/11/07 07:51:26;;;;;;;38.33;23.30;;;8.20;99.90;;;;;;5153780;27;19964;-78
2021/11/07 07:53:52;;;;;;;34.33;23.52;;;8.30;99.90;;;;;;5153235;27;20041;-79
2021/11/07 07:56:18;;;;;;;;;;;8.80;99.90;;;;;;5154137;27;20030;-79
2021/11/07 07:58:45;;;;;;;30.50;20.63;;;8.50;99.90;;;;;;5134280;27;20272;-78
2021/11/07 08:01:11;;;;;;;36.92;20.98;;;8.60;99.90;;;;;;5153176;27;20041;-78
2021/11/07 08:03:38;;;;;;;40.83;24.48;;;8.60;99.90;;;;;;5134636;27;20018;-78
2021/11/07 08:06:03;;;;;;;23.75;17.38;;;8.70;99.90;;;;;;5134566;27;20421;-78
2021/11/07 08:08:29;;;;;;;;;;;8.80;99.90;;;;;;5135734;27;20022;-79
2021/11/07 08:10:55;;;;;;;13.70;9.63;;;8.90;99.90;;;;;;5153404;27;19914;-79
2021/11/07 08:13:20;;;;;;;15.38;6.13;;;8.80;99.90;;;;;;5134565;27;20509;-78
2021/11/07 08:15:46;;;;;;;;;;;8.90;99.90;;;;;;5136403;27;20030;-79
2021/11/07 08:18:11;;;;;;;9.30;6.13;;;8.90;99.90;;;;;;5157793;27;19907;-78
2021/11/07 08:20:37;;;;;;;;;;;9.00;99.90;;;;;;5136698;27;20406;-78
2021/11/07 08:23:03;;;;;;;8.63;6.75;;;9.10;99.90;;;;;;5133264;27;19931;-79
2021/11/07 08:25:30;;;;;;;8.85;6.53;;;9.30;99.90;;;;;;5133402;27;20056;-78
2021/11/07 08:28:01;;;;;;;10.07;6.93;;;9.40;99.90;;;;;;5132513;27;20406;-78
2021/11/07 08:30:29;;;;;;;10.23;6.28;;;9.60;99.90;;;;;;5132142;27;20542;-78
2021/11/07 08:32:55;;;;;;;8.65;5.97;;;9.80;99.90;;;;;;5131043;27;20026;-79
2021/11/07 08:35:21;;;;;;;;;;;9.90;99.90;;;;;;5150363;27;20095;-78
2021/11/07 08:40:28;;;;;;;8.00;5.82;;;10.20;99.90;;;;;;5150376;27;20058;-82
2021/11/07 08:43:06;;;;;;;11.27;5.88;;;10.40;99.90;;;;;;5150177;27;20041;-80
2021/11/07 09:02:24;;;;;;;12.30;7.07;;;11.80;99.90;;;;;;5150200;27;20041;-78
2021/11/07 09:07:23;;;;;;;8.95;6.43;;;11.90;99.90;;;;;;5149908;27;20026;-78
2021/11/07 09:09:58;;;;;;;8.18;5.75;;;12.00;99.90;;;;;;5131183;27;20027;-78
2021/11/07 09:12:24;;;;;;;10.43;5.55;;;12.00;99.90;;;;;;5130603;27;20030;-81
2021/11/07 09:14:50;;;;;;;8.52;5.85;;;12.00;99.90;;;;;;5130400;27;20130;-78
2021/11/07 09:17:16;;;;;;;;;;;11.80;99.90;;;;;;5149878;27;20137;-78
2021/11/07 09:19:44;;;;;;;7.45;5.72;;;11.70;99.90;;;;;;5149155;27;20387;-79
2021/11/07 09:24:47;;;;;;;8.13;4.85;;;11.50;99.90;;;;;;5149898;27;20483;-79
2021/11/07 09:27:38;;;;;;;9.38;5.60;;;11.40;99.90;;;;;;5149195;27;20029;-77
2021/11/07 09:35:41;;;;;;;8.55;5.50;;;11.40;99.90;;;;;;5149081;27;20081;-79
2021/11/07 09:38:04;;;;;;;8.95;5.82;;;11.40;99.90;;;;;;5148227;27;20046;-77
2021/11/07 09:40:33;;;;;;;11.00;5.65;;;11.40;99.90;;;;;;5130423;27;20056;-78
2021/11/07 09:45:49;;;;;;;8.75;5.15;;;11.40;99.90;;;;;;5149010;27;20079;-80
2021/11/07 09:48:21;;;;;;;7.70;4.70;;;11.50;99.90;;;;;;5129926;27;20038;-81
2021/11/07 09:50:48;;;;;;;7.40;4.72;;;11.50;99.90;;;;;;5129125;27;20037;-78
2021/11/07 09:53:14;;;;;;;8.13;5.70;;;11.60;99.90;;;;;;5129049;27;20033;-78
2021/11/07 09:55:41;;;;;;;10.20;7.15;;;11.90;99.90;;;;;;5129360;27;20034;-81
2021/11/07 09:58:07;;;;;;;8.77;6.75;;;12.00;99.90;;;;;;5128889;27;20101;-79
2021/11/07 10:00:53;;;;;;;;;;;12.10;99.90;;;;;;5130358;27;20122;-79
2021/11/07 10:03:23;;;;;;;8.57;5.50;;;12.20;99.90;;;;;;5129601;27;19914;-78
2021/11/07 10:05:51;;;;;;;6.30;4.50;;;12.30;99.90;;;;;;5130120;27;20439;-76
2021/11/07 10:08:18;;;;;;;6.18;4.55;;;12.20;99.90;;;;;;5148743;27;20034;-79
2021/11/07 10:11:08;;;;;;;9.18;5.90;;;12.20;99.90;;;;;;5148246;27;20440;-81
2021/11/07 10:13:33;;;;;;;7.00;4.70;;;12.30;99.90;;;;;;5147539;27;20037;-81
2021/11/07 10:16:12;;;;;;;8.65;4.95;;;12.30;99.90;;;;;;5130071;27;20087;-80
2021/11/07 10:18:48;;;;;;;6.82;4.30;;;12.50;99.90;;;;;;5129608;27;20034;-77
2021/11/07 10:21:26;;;;;;;8.07;4.63;;;12.70;99.90;;;;;;5129708;27;20530;-78
2021/11/07 10:24:07;;;;;;;5.60;3.92;;;12.90;99.90;;;;;;5129371;27;20398;-80
2021/11/07 10:26:41;;;;;;;9.88;4.95;;;13.20;99.90;;;;;;5129371;27;20121;-79
2021/11/07 10:29:10;;;;;;;5.63;4.50;;;13.30;99.50;;;;;;5148186;27;20033;-76
2021/11/07 10:47:18;;;;;;;;;;;12.90;98.70;;;;;;5148476;27;20038;-81
2021/11/07 10:52:37;;;;;;;10.50;6.65;;;12.60;97.50;;;;;;5148340;27;20176;-78
2021/11/07 10:55:24;;;;;;;8.45;6.57;;;12.70;98.10;;;;;;5147643;27;20038;-80
2021/11/07 10:57:53;;;;;;;8.95;6.50;;;12.60;97.10;;;;;;5148030;27;20022;-79
2021/11/07 11:00:20;;;;;;;8.88;6.57;;;12.60;97.40;;;;;;5128878;27;20033;-78
2021/11/07 11:03:01;;;;;;;8.43;6.13;;;12.80;97.30;;;;;;5147254;27;20022;-77
2021/11/07 11:05:35;;;;;;;10.02;6.38;;;12.80;97.10;;;;;;5128875;27;20034;-81
2021/11/07 11:08:09;;;;;;;11.82;7.63;;;12.80;96.90;;;;;;5147606;27;20027;-78
2021/11/07 11:13:16;;;;;;;10.40;6.65;;;12.90;97.40;;;;;;5147291;27;20031;-78
2021/11/07 11:21:52;;;;;;;8.70;5.53;;;12.80;97.70;;;;;;5150005;27;20043;-77
2021/11/07 11:32:21;;;;;;;;;;;12.70;97.90;;;;;;5152250;27;20023;-77
2021/11/07 11:43:03;;;;;;;13.30;8.55;;;12.50;99.30;;;;;;5147210;27;20031;-80
2021/11/07 11:45:35;;;;;;;9.85;7.18;;;12.50;97.50;;;;;;5128503;27;20114;-78
2021/11/07 11:51:22;;;;;;;12.75;7.82;;;12.60;97.30;;;;;;5107278;27;20477;-80
2021/11/07 12:00:08;;;;;;;16.00;7.07;;;12.10;99.30;;;;;;5151384;27;20083;-78
2021/11/07 12:02:57;;;;;;;13.05;10.20;;;12.20;99.70;;;;;;5131912;27;20023;-78
2021/11/07 12:05:44;;;;;;;19.42;13.93;;;12.30;99.90;;;;;;5132459;27;20398;-77
2021/11/07 12:08:23;;;;;;;10.88;8.20;;;12.40;99.90;;;;;;5131959;27;20037;-79
2021/11/07 12:11:00;;;;;;;9.95;7.35;;;12.60;99.90;;;;;;5131605;27;20027;-79
2021/11/07 12:14:01;;;;;;;11.00;7.63;;;12.70;99.30;;;;;;5131864;27;20042;-78
2021/11/07 12:16:57;;;;;;;13.75;9.07;;;12.80;99.10;;;;;;5149297;27;20354;-81
2021/11/07 12:19:44;;;;;;;12.55;9.57;;;12.80;97.70;;;;;;5127701;27;20421;-79
2021/11/07 12:22:11;;;;;;;15.57;9.43;;;12.60;98.60;;;;;;5131769;27;20026;-76
2021/11/07 12:24:46;;;;;;;21.80;16.10;;;12.50;99.30;;;;;;5131951;27;20033;-80
2021/11/07 12:27:21;;;;;;;15.38;9.88;;;12.30;99.70;;;;;;5131824;27;20023;-78
2021/11/07 12:29:52;;;;;;;12.57;8.93;;;12.30;99.90;;;;;;5150697;27;20069;-78
2021/11/07 12:32:18;;;;;;;15.27;8.48;;;12.40;99.90;;;;;;5131263;27;20027;-81
2021/11/07 12:35:06;;;;;;;;;;;12.30;99.90;;;;;;5150694;27;20562;-79
2021/11/07 12:40:48;;;;;;;11.80;7.88;;;12.30;99.90;;;;;;5150190;27;19938;-79
2021/11/07 12:43:34;;;;;;;12.38;8.25;;;12.30;99.90;;;;;;5150241;27;20059;-78
2021/11/07 12:46:16;;;;;;;13.82;8.93;;;12.40;99.90;;;;;;5149935;27;20023;-80
2021/11/07 12:48:52;;;;;;;12.50;8.60;;;12.40;99.90;;;;;;5131708;27;20502;-79
2021/11/07 12:51:30;;;;;;;14.98;8.93;;;12.50;99.90;;;;;;5131602;27;20034;-79
2021/11/07 12:54:03;;;;;;;14.30;10.23;;;12.60;99.90;;;;;;5131651;27;20038;-77
2021/11/07 12:56:43;;;;;;;15.65;10.93;;;12.50;99.90;;;;;;5131411;27;20031;-79
2021/11/07 12:59:29;;;;;;;13.82;10.32;;;12.40;99.90;;;;;;5131005;27;20033;-80
2021/11/07 13:01:59;;;;;;;;;;;12.30;99.90;;;;;;5130823;27;20027;-79
2021/11/07 13:04:27;;;;;;;12.05;8.98;;;12.20;99.90;;;;;;5130735;27;19907;-79
2021/11/07 13:06:59;;;;;;;15.02;9.95;;;12.10;99.90;;;;;;5131232;27;20075;-78
2021/11/07 13:09:39;;;;;;;14.38;10.10;;;12.10;99.90;;;;;;5149399;27;20083;-80
2021/11/07 13:12:18;;;;;;;15.13;10.15;;;12.00;99.90;;;;;;5131007;27;20035;-79
2021/11/07 13:21:11;;;;;;;11.93;8.85;;;11.60;99.90;;;;;;5044860;28;20090;-78
2021/11/07 13:27:26;;;;;;;15.15;11.73;;;11.50;99.90;;;;;;5141369;27;20045;-80
2021/11/07 13:29:35;;;;;;;27.33;13.02;;;11.50;99.90;;;;;;5138146;27;20041;-80
2021/11/07 13:34:36;;;;;;;20.05;13.35;;;11.40;99.90;;;;;;5148998;27;20116;-80
2021/11/07 13:37:05;;;;;;;21.10;11.80;;;11.40;99.90;;;;;;5129862;27;20119;-80
2021/11/07 13:39:34;;;;;;;16.17;11.20;;;11.30;99.90;;;;;;5130194;27;20311;-78
2021/11/07 13:42:12;;;;;;;15.18;11.20;;;11.30;99.90;;;;;;5130105;27;20114;-80
2021/11/07 13:45:00;;;;;;;15.98;11.02;;;11.20;99.90;;;;;;5149071;27;20136;-80
2021/11/07 13:47:45;;;;;;;14.30;10.68;;;11.20;99.90;;;;;;5129377;27;20019;-77
2021/11/07 13:50:18;;;;;;;21.92;11.00;;;11.10;99.90;;;;;;5149329;27;20026;-78
2021/11/07 13:52:44;;;;;;;15.15;11.60;;;10.90;99.90;;;;;;5131241;27;20509;-79
2021/11/07 13:55:19;;;;;;;14.65;10.10;;;10.90;99.90;;;;;;5130179;27;20421;-78
2021/11/07 13:57:45;;;;;;;15.52;10.95;;;10.90;99.90;;;;;;5130161;27;20049;-79
2021/11/07 14:00:14;;;;;;;18.10;12.25;;;10.80;99.90;;;;;;5129224;27;20027;-80
2021/11/07 14:02:47;;;;;;;19.40;12.68;;;10.80;99.90;;;;;;5129638;27;20424;-77
2021/11/07 14:05:13;;;;;;;24.73;12.63;;;10.80;99.90;;;;;;5130287;27;20391;-78
2021/11/07 14:07:40;;;;;;;;;;;10.70;99.90;;;;;;5130233;27;20783;-79
2021/11/07 14:10:17;;;;;;;39.88;25.30;;;10.70;99.90;;;;;;5129885;27;19907;-78
2021/11/07 14:12:50;;;;;;;46.97;33.85;;;10.70;99.90;;;;;;5128815;27;20065;-78
2021/11/07 14:15:23;;;;;;;25.85;16.05;;;10.70;99.90;;;;;;5129599;27;20059;-79
2021/11/07 14:17:52;;;;;;;30.15;15.10;;;10.60;99.90;;;;;;5129905;27;20451;-78
2021/11/07 14:20:38;;;;;;;21.98;16.08;;;10.60;99.90;;;;;;5129566;27;20034;-79
2021/11/07 14:23:17;;;;;;;20.50;13.80;;;10.60;99.90;;;;;;5129740;27;20470;-78
2021/11/07 14:25:49;;;;;;;19.58;12.73;;;10.50;99.90;;;;;;5148564;27;20050;-79
2021/11/07 14:28:21;;;;;;;22.65;13.13;;;10.50;99.90;;;;;;5131736;27;20030;-78
2021/11/07 14:30:48;;;;;;;19.23;13.05;;;10.40;99.90;;;;;;5149147;27;20479;-78
2021/11/07 14:33:28;;;;;;;19.90;13.13;;;10.30;99.90;;;;;;5150193;27;20029;-79
2021/11/07 14:36:00;;;;;;;21.20;14.35;;;10.10;99.90;;;;;;5131730;27;20121;-78
2021/11/07 14:38:33;;;;;;;26.73;20.73;;;10.00;99.90;;;;;;5131661;27;20402;-78
2021/11/07 14:43:55;;;;;;;23.50;18.13;;;9.80;99.90;;;;;;5150095;27;20028;-78
2021/11/07 14:47:11;;;;;;;24.35;15.30;;;9.60;99.90;;;;;;5130822;27;20443;-78
2021/11/07 14:50:12;;;;;;;22.25;14.32;;;9.50;99.90;;;;;;5139000;27;20026;-79
2021/11/07 14:52:36;;;;;;;20.38;13.95;;;9.40;99.90;;;;;;5138988;27;20050;-78
2021/11/07 14:56:04;;;;;;;19.40;13.25;;;9.40;99.90;;;;;;5149986;27;20172;-78
2021/11/07 15:00:43;;;;;;;16.85;12.25;;;9.20;99.90;;;;;;5150226;27;20779;-78
2021/11/07 15:03:15;;;;;;;19.98;13.48;;;9.10;99.90;;;;;;5131299;27;20075;-77
2021/11/07 15:06:08;;;;;;;20.50;13.35;;;9.00;99.90;;;;;;5150852;27;20101;-78
2021/11/07 15:08:48;;;;;;;18.17;12.45;;;8.90;99.90;;;;;;5150049;27;20410;-78
2021/11/07 15:11:45;;;;;;;18.60;13.30;;;8.80;99.90;;;;;;5131580;27;20027;-79
2021/11/07 15:17:40;;;;;;;26.25;17.33;;;8.50;99.90;;;;;;5151309;27;20087;-78
2021/11/07 15:20:20;;;;;;;21.52;15.70;;;8.40;99.90;;;;;;5151505;27;20018;-78
2021/11/07 15:22:50;;;;;;;25.40;17.23;;;8.30;99.90;;;;;;5150624;27;20394;-78
2021/11/07 15:25:17;;;;;;;28.10;18.73;;;8.20;99.90;;;;;;5154817;27;20044;-78
2021/11/07 15:27:53;;;;;;;25.52;18.90;;;8.20;99.90;;;;;;5137346;27;20037;-78
2021/11/07 15:30:19;;;;;;;23.88;16.65;;;8.10;99.90;;;;;;5155877;27;20019;-78
2021/11/07 15:32:45;;;;;;;;;;;8.00;99.90;;;;;;5138077;27;20653;-78
2021/11/07 15:35:25;;;;;;;25.55;16.58;;;7.80;99.90;;;;;;5137757;27;19915;-77
2021/11/07 15:37:53;;;;;;;26.70;17.77;;;7.80;99.90;;;;;;5137924;27;20444;-78
2021/11/07 15:40:32;;;;;;;28.30;18.50;;;7.70;99.90;;;;;;5156508;27;20034;-78